Time;durP1;ratioP1;P1;durP2;ratioP2;P2;SDS_P1;SDS_P2;PMS_P1;PMS_P2;Temp;Humidity;BMP_temperature;BMP_pressure;BME280_temperature;BME280_humidity;BME280_pressure;Samples;Min_cycle;Max_cycle;Signal;HPM_P1;HPM_P2
2023/05/27 00:00:41;;;;;;;15.00;12.40;;;17.90;83.20;;;;;;5015432;28;20079;-79
2023/05/27 00:03:07;;;;;;;14.13;12.27;;;17.90;83.50;;;;;;5014089;28;20034;-79
2023/05/27 00:05:33;;;;;;;17.95;11.38;;;17.90;83.80;;;;;;5016063;28;20028;-80
2023/05/27 00:07:58;;;;;;;16.50;13.48;;;17.90;84.10;;;;;;5014717;28;20033;-79
2023/05/27 00:10:24;;;;;;;17.92;12.55;;;17.80;84.10;;;;;;5015339;28;20018;-80
2023/05/27 00:12:50;;;;;;;21.98;12.65;;;17.80;84.40;;;;;;5015534;28;20038;-81
2023/05/27 00:15:18;;;;;;;12.55;11.13;;;17.80;84.80;;;;;;5015824;28;20018;-79
2023/05/27 00:17:43;;;;;;;18.08;11.48;;;17.70;84.80;;;;;;5015577;28;20130;-81
2023/05/27 00:20:10;;;;;;;17.13;12.48;;;17.80;85.00;;;;;;5013564;28;20089;-80
2023/05/27 00:22:36;;;;;;;16.10;11.45;;;17.70;85.20;;;;;;5014295;28;20021;-80
2023/05/27 00:25:03;;;;;;;14.63;11.23;;;17.70;85.50;;;;;;5017755;28;20064;-79
2023/05/27 00:27:29;;;;;;;13.82;11.98;;;17.70;85.60;;;;;;5018018;28;20018;-78
2023/05/27 00:29:54;;;;;;;16.20;11.02;;;17.60;85.80;;;;;;5016885;28;20072;-81
2023/05/27 00:32:20;;;;;;;13.85;11.43;;;17.60;86.10;;;;;;5015348;28;20022;-79
2023/05/27 00:34:46;;;;;;;17.02;12.30;;;17.60;86.40;;;;;;5014604;28;20105;-79
2023/05/27 00:37:14;;;;;;;14.45;11.73;;;17.60;87.20;;;;;;5012518;28;20038;-80
2023/05/27 00:39:40;;;;;;;15.38;11.63;;;17.60;86.70;;;;;;5014350;28;20080;-79
2023/05/27 00:42:07;;;;;;;13.27;10.73;;;17.60;87.00;;;;;;5014557;28;20022;-79
2023/05/27 00:44:33;;;;;;;15.73;11.60;;;17.60;87.20;;;;;;4996212;28;20101;-79
2023/05/27 00:46:59;;;;;;;13.25;11.63;;;17.60;87.40;;;;;;5013634;28;20025;-79
2023/05/27 00:49:26;;;;;;;15.95;12.25;;;17.50;87.50;;;;;;5020221;28;20093;-80
2023/05/27 00:51:52;;;;;;;13.10;11.05;;;17.50;87.60;;;;;;5022264;28;20026;-80
2023/05/27 00:54:18;;;;;;;13.05;11.05;;;17.50;87.90;;;;;;5020778;28;20053;-78
2023/05/27 00:56:44;;;;;;;14.02;11.65;;;17.50;88.00;;;;;;5023966;28;20042;-79
2023/05/27 00:59:11;;;;;;;12.23;10.75;;;17.50;88.30;;;;;;5014704;28;20541;-80
2023/05/27 01:01:38;;;;;;;14.52;11.68;;;17.40;88.50;;;;;;5014306;28;20018;-79
2023/05/27 01:04:05;;;;;;;15.35;11.60;;;17.40;88.60;;;;;;5014281;28;20029;-81
2023/05/27 01:06:47;;;;;;;17.35;12.25;;;17.40;88.90;;;;;;5014190;28;20030;-79
2023/05/27 01:09:25;;;;;;;13.05;11.75;;;17.40;89.20;;;;;;5001966;28;20040;-81
2023/05/27 01:12:05;;;;;;;16.55;11.13;;;17.40;89.60;;;;;;5013659;28;20029;-79
2023/05/27 01:14:35;;;;;;;13.32;10.43;;;17.40;89.80;;;;;;5013813;28;20079;-79
2023/05/27 01:17:03;;;;;;;11.68;10.48;;;17.40;90.00;;;;;;5012581;28;20069;-78
2023/05/27 01:19:42;;;;;;;13.60;11.25;;;17.40;90.10;;;;;;5014258;28;20585;-81
2023/05/27 01:22:12;;;;;;;13.90;11.00;;;17.30;90.30;;;;;;5014590;28;20052;-82
2023/05/27 01:24:38;;;;;;;14.10;10.43;;;17.30;90.50;;;;;;5014124;28;20030;-81
2023/05/27 01:27:04;;;;;;;14.57;11.52;;;17.30;90.90;;;;;;4995972;28;20169;-80
2023/05/27 01:29:31;;;;;;;13.57;10.90;;;17.20;91.10;;;;;;5015255;28;20446;-80
2023/05/27 01:32:05;;;;;;;15.90;11.07;;;17.30;91.30;;;;;;4996699;28;20029;-80
2023/05/27 01:34:56;;;;;;;16.77;11.38;;;17.20;91.40;;;;;;5014285;28;20392;-81
2023/05/27 01:37:25;;;;;;;12.48;10.07;;;17.20;91.60;;;;;;5017546;28;20164;-80
2023/05/27 01:39:52;;;;;;;17.58;9.82;;;17.20;91.80;;;;;;5033486;28;20077;-80
2023/05/27 01:42:20;;;;;;;12.45;10.27;;;17.20;92.00;;;;;;5018334;28;20109;-81
2023/05/27 01:44:47;;;;;;;13.48;10.30;;;17.20;92.20;;;;;;5017289;28;20100;-81
2023/05/27 01:47:12;;;;;;;14.13;10.30;;;17.20;92.30;;;;;;5016701;28;20497;-81
2023/05/27 01:49:38;;;;;;;11.48;10.38;;;17.20;92.80;;;;;;5020859;28;20014;-81
2023/05/27 01:52:04;;;;;;;13.15;10.85;;;17.20;92.60;;;;;;5017344;28;20068;-80
2023/05/27 01:54:30;;;;;;;13.60;10.63;;;17.20;92.80;;;;;;5013695;28;20100;-81
2023/05/27 01:56:57;;;;;;;12.20;10.10;;;17.10;92.80;;;;;;4995968;28;20038;-81
2023/05/27 01:59:23;;;;;;;12.50;10.77;;;17.20;92.90;;;;;;5012556;28;20065;-80
2023/05/27 02:01:48;;;;;;;11.80;10.20;;;17.20;92.70;;;;;;5012734;28;20053;-80
2023/05/27 02:04:14;;;;;;;11.77;9.80;;;17.10;92.50;;;;;;5014248;28;20072;-80
2023/05/27 02:06:40;;;;;;;11.32;9.75;;;17.10;92.50;;;;;;5012961;28;20036;-80
2023/05/27 02:09:06;;;;;;;16.40;10.77;;;17.10;92.50;;;;;;5014882;28;20086;-80
2023/05/27 02:11:32;;;;;;;10.88;9.75;;;17.10;92.70;;;;;;5020470;28;20070;-81
2023/05/27 02:13:59;;;;;;;12.20;10.88;;;17.10;92.70;;;;;;5012961;28;20026;-81
2023/05/27 02:16:25;;;;;;;12.77;10.70;;;17.00;92.40;;;;;;5012991;28;20018;-80
2023/05/27 02:18:51;;;;;;;12.70;11.32;;;16.90;92.40;;;;;;5012918;28;20034;-81
2023/05/27 02:21:17;;;;;;;13.88;10.98;;;16.90;92.50;;;;;;5012807;28;20032;-81
2023/05/27 02:23:43;;;;;;;10.98;9.90;;;16.90;92.40;;;;;;4994881;28;20026;-81
2023/05/27 02:26:09;;;;;;;11.02;9.90;;;16.90;92.10;;;;;;5011965;28;20041;-81
2023/05/27 02:28:35;;;;;;;12.50;11.20;;;16.90;92.30;;;;;;5015455;28;20093;-81
2023/05/27 02:31:00;;;;;;;13.52;10.60;;;16.90;91.70;;;;;;5033845;28;20041;-80
2023/05/27 02:33:26;;;;;;;13.32;11.48;;;16.90;91.70;;;;;;5022885;28;20078;-82
2023/05/27 02:35:52;;;;;;;12.13;10.85;;;16.90;91.50;;;;;;5017935;28;20563;-82
2023/05/27 02:38:18;;;;;;;11.52;10.00;;;16.90;91.30;;;;;;5036381;28;20026;-82
2023/05/27 02:40:44;;;;;;;12.20;10.98;;;16.90;91.10;;;;;;5022506;28;20120;-82
2023/05/27 02:43:10;;;;;;;13.27;10.55;;;17.00;91.00;;;;;;5033262;28;20026;-81
2023/05/27 02:45:36;;;;;;;12.15;10.40;;;16.90;90.80;;;;;;5019735;28;20105;-82
2023/05/27 02:48:02;;;;;;;10.70;9.60;;;17.00;90.70;;;;;;5025869;28;20514;-81
2023/05/27 02:50:28;;;;;;;14.07;9.73;;;17.00;90.50;;;;;;5030563;28;20017;-82
2023/05/27 02:52:55;;;;;;;11.85;10.30;;;17.00;90.30;;;;;;5015451;28;20045;-82
2023/05/27 02:55:21;;;;;;;16.35;10.13;;;17.00;90.10;;;;;;4995733;28;20502;-83
2023/05/27 02:57:46;;;;;;;10.57;9.40;;;17.00;90.00;;;;;;5012425;28;20033;-82
2023/05/27 03:00:13;;;;;;;11.07;9.90;;;17.10;89.90;;;;;;5012459;28;20022;-82
2023/05/27 03:02:39;;;;;;;13.50;9.23;;;17.10;88.50;;;;;;5011796;28;20057;-82
2023/05/27 03:05:06;;;;;;;14.02;8.88;;;17.10;87.80;;;;;;5012386;28;20021;-81
2023/05/27 03:07:31;;;;;;;10.57;8.02;;;17.10;87.30;;;;;;5012887;28;20156;-81
2023/05/27 03:09:58;;;;;;;9.35;8.45;;;17.10;86.40;;;;;;5014613;28;20064;-79
2023/05/27 03:12:24;;;;;;;9.90;8.90;;;17.10;85.70;;;;;;5016783;28;20032;-81
2023/05/27 03:14:50;;;;;;;10.27;8.07;;;17.20;85.60;;;;;;5017196;28;20084;-81
2023/05/27 03:17:17;;;;;;;10.00;8.27;;;17.20;84.90;;;;;;5007732;28;20117;-81
2023/05/27 03:19:43;;;;;;;11.55;7.85;;;17.20;83.80;;;;;;5016198;28;20054;-80
2023/05/27 03:22:09;;;;;;;10.10;7.35;;;17.20;83.40;;;;;;5016232;28;20084;-80
2023/05/27 03:24:36;;;;;;;12.65;7.43;;;17.20;83.30;;;;;;5016234;28;20041;-81
2023/05/27 03:27:03;;;;;;;10.27;7.18;;;17.30;82.60;;;;;;5015776;28;20026;-81
2023/05/27 03:29:29;;;;;;;10.23;7.93;;;17.30;82.40;;;;;;5024302;28;20457;-81
2023/05/27 03:31:55;;;;;;;8.40;7.25;;;17.30;82.30;;;;;;4997251;28;20113;-82
2023/05/27 03:34:21;;;;;;;9.68;7.25;;;17.40;81.70;;;;;;5017141;28;20064;-81
2023/05/27 03:36:47;;;;;;;8.73;6.80;;;17.40;81.10;;;;;;5017034;28;20033;-81
2023/05/27 03:39:13;;;;;;;10.30;6.95;;;17.50;81.30;;;;;;5023800;28;20108;-82
2023/05/27 03:41:39;;;;;;;10.52;7.20;;;17.50;80.40;;;;;;5015471;28;20080;-80
2023/05/27 03:44:05;;;;;;;8.65;7.70;;;17.60;80.20;;;;;;5014401;28;20034;-80
2023/05/27 03:46:31;;;;;;;7.53;6.65;;;17.70;79.40;;;;;;4997606;28;20034;-82
2023/05/27 03:48:57;;;;;;;9.55;6.55;;;17.70;79.30;;;;;;5015406;28;20548;-82
2023/05/27 03:51:23;;;;;;;10.10;6.85;;;17.80;79.00;;;;;;5015263;28;20010;-82
2023/05/27 03:53:49;;;;;;;8.48;7.00;;;17.90;78.30;;;;;;5014950;28;20058;-82
2023/05/27 03:56:16;;;;;;;8.80;7.82;;;18.10;77.40;;;;;;5015194;28;20523;-81
2023/05/27 03:58:41;;;;;;;8.50;6.38;;;18.10;76.80;;;;;;5015369;28;20034;-82
2023/05/27 04:01:08;;;;;;;8.15;6.40;;;18.10;76.20;;;;;;5013977;28;20054;-81
2023/05/27 04:03:34;;;;;;;8.02;5.63;;;18.20;75.20;;;;;;5015383;28;20100;-82
2023/05/27 04:06:00;;;;;;;6.68;5.25;;;18.20;73.90;;;;;;5014092;28;20076;-81
2023/05/27 04:08:26;;;;;;;7.43;6.25;;;18.10;73.30;;;;;;5015653;28;20379;-82
2023/05/27 04:10:55;;;;;;;7.28;6.57;;;18.10;73.90;;;;;;5015128;28;20064;-81
2023/05/27 04:13:21;;;;;;;7.68;6.50;;;18.20;74.00;;;;;;4997810;28;20088;-83
2023/05/27 04:15:48;;;;;;;9.18;6.78;;;18.20;73.60;;;;;;5014196;28;20022;-81
2023/05/27 04:18:14;;;;;;;12.18;6.65;;;18.30;73.10;;;;;;4993472;28;20040;-81
2023/05/27 04:20:42;;;;;;;7.45;5.13;;;18.30;72.70;;;;;;5014943;28;20036;-82
2023/05/27 04:23:11;;;;;;;8.20;5.45;;;18.30;71.60;;;;;;5013855;28;20301;-81
2023/05/27 04:25:39;;;;;;;10.43;6.18;;;18.30;71.40;;;;;;5019655;28;20018;-82
2023/05/27 04:28:04;;;;;;;;;;;18.30;71.60;;;;;;5017279;28;20026;-82
2023/05/27 04:30:31;;;;;;;12.10;5.93;;;18.50;71.90;;;;;;5016820;28;19910;-81
2023/05/27 04:32:57;;;;;;;7.72;5.93;;;18.50;71.00;;;;;;5017790;28;20022;-82
2023/05/27 04:35:23;;;;;;;8.00;5.35;;;18.50;69.80;;;;;;4995562;28;20045;-82
2023/05/27 04:37:49;;;;;;;7.43;5.65;;;18.50;69.00;;;;;;5016708;28;20033;-83
2023/05/27 04:40:15;;;;;;;6.28;4.95;;;18.60;68.50;;;;;;5016701;28;20467;-83
2023/05/27 04:42:43;;;;;;;7.05;5.32;;;18.50;67.80;;;;;;5002082;28;20037;-81
2023/05/27 04:45:13;;;;;;;14.73;6.00;;;18.40;67.30;;;;;;5032563;28;20029;-82
2023/05/27 04:47:40;;;;;;;9.80;5.53;;;18.20;67.90;;;;;;5020972;28;20368;-81
2023/05/27 04:50:10;;;;;;;7.75;5.57;;;18.20;68.30;;;;;;5015094;28;20017;-83
2023/05/27 04:52:41;;;;;;;9.75;5.75;;;18.30;68.40;;;;;;5015604;28;20034;-82
2023/05/27 04:55:09;;;;;;;6.60;5.63;;;18.30;67.90;;;;;;5016076;28;20021;-81
2023/05/27 04:57:36;;;;;;;7.93;5.47;;;18.40;67.50;;;;;;5014480;28;20048;-81
2023/05/27 05:02:34;;;;;;;8.00;5.30;;;18.60;67.90;;;;;;5016918;28;19945;-83
2023/05/27 05:05:11;;;;;;;9.35;5.13;;;19.10;66.30;;;;;;4998488;28;20267;-82
2023/05/27 05:07:39;;;;;;;7.03;4.97;;;20.10;64.10;;;;;;5016989;28;20416;-83
2023/05/27 05:10:09;;;;;;;10.02;4.63;;;20.90;60.80;;;;;;5001605;28;20064;-83
2023/05/27 05:12:39;;;;;;;12.05;4.90;;;21.60;59.60;;;;;;5022378;28;20101;-81
2023/05/27 05:15:06;;;;;;;5.75;4.70;;;22.30;57.30;;;;;;5019269;28;20022;-84
2023/05/27 05:17:32;;;;;;;7.10;4.32;;;22.80;55.50;;;;;;5017000;28;20100;-83
2023/05/27 05:20:01;;;;;;;5.85;3.92;;;23.30;54.00;;;;;;5018613;28;20029;-81
2023/05/27 05:22:28;;;;;;;9.43;4.35;;;23.80;52.40;;;;;;5020664;28;20029;-85
2023/05/27 05:24:54;;;;;;;4.80;4.00;;;24.20;50.20;;;;;;5017058;28;20475;-81
2023/05/27 05:27:20;;;;;;;8.02;4.10;;;24.30;49.70;;;;;;5015770;28;20026;-83
2023/05/27 05:29:46;;;;;;;8.65;4.18;;;24.40;48.40;;;;;;5014500;28;20096;-81
2023/05/27 05:32:12;;;;;;;7.63;4.18;;;24.60;47.50;;;;;;5016953;28;20434;-83
2023/05/27 05:34:39;;;;;;;8.77;3.80;;;24.60;46.70;;;;;;5013776;28;20057;-82
2023/05/27 05:37:06;;;;;;;5.90;3.50;;;24.60;46.30;;;;;;5014640;28;20096;-83
2023/05/27 05:39:32;;;;;;;6.68;4.32;;;24.50;46.20;;;;;;5016809;28;20049;-81
2023/05/27 05:41:59;;;;;;;6.55;3.83;;;24.80;45.90;;;;;;5015177;28;20049;-82
2023/05/27 05:44:25;;;;;;;;;;;25.20;45.00;;;;;;4997073;28;20014;-81
2023/05/27 05:46:52;;;;;;;4.13;3.33;;;25.50;45.80;;;;;;5022440;28;19905;-82
2023/05/27 05:49:19;;;;;;;6.82;3.88;;;25.90;43.50;;;;;;5022337;28;20116;-81
2023/05/27 05:51:45;;;;;;;7.63;3.67;;;26.00;43.00;;;;;;5019293;28;20029;-82
2023/05/27 05:54:11;;;;;;;7.82;4.05;;;26.20;42.80;;;;;;5027935;28;20034;-82
2023/05/27 05:56:37;;;;;;;6.90;3.60;;;26.50;41.30;;;;;;5036921;28;20046;-82
2023/05/27 05:59:03;;;;;;;8.25;2.70;;;26.60;41.30;;;;;;5029456;28;20013;-82
2023/05/27 06:01:29;;;;;;;7.35;3.42;;;26.80;40.70;;;;;;5009248;28;20030;-83
2023/05/27 06:03:56;;;;;;;12.30;3.42;;;27.20;41.00;;;;;;5028915;28;20519;-82
2023/05/27 06:06:22;;;;;;;7.20;3.40;;;27.50;39.50;;;;;;4999808;28;20018;-82
2023/05/27 06:08:48;;;;;;;8.50;3.53;;;27.90;38.80;;;;;;5016616;28;20101;-83
2023/05/27 06:11:14;;;;;;;5.13;3.10;;;28.40;38.70;;;;;;5014594;28;20022;-85
2023/05/27 06:13:41;;;;;;;6.43;3.23;;;29.30;37.30;;;;;;5014517;28;20057;-83
2023/05/27 06:16:07;;;;;;;6.60;3.22;;;29.40;36.80;;;;;;5014185;28;20362;-82
2023/05/27 06:18:33;;;;;;;6.95;3.15;;;29.10;37.00;;;;;;5015293;28;20037;-82
2023/05/27 06:20:59;;;;;;;6.97;3.40;;;29.00;37.30;;;;;;5015685;28;20022;-82
2023/05/27 06:23:25;;;;;;;11.38;3.13;;;29.40;37.20;;;;;;5013917;28;20404;-82
2023/05/27 06:25:51;;;;;;;6.43;3.30;;;30.20;36.40;;;;;;5013897;28;20033;-82
2023/05/27 06:28:17;;;;;;;5.00;2.92;;;30.90;36.00;;;;;;5016126;28;20113;-82
2023/05/27 06:30:43;;;;;;;6.55;3.22;;;31.70;35.00;;;;;;5019086;28;20037;-82
2023/05/27 06:33:09;;;;;;;3.67;2.73;;;32.10;34.20;;;;;;5017648;28;20026;-82
2023/05/27 06:35:35;;;;;;;8.30;3.20;;;32.30;34.20;;;;;;5016074;28;20034;-82
2023/05/27 06:38:01;;;;;;;5.67;3.40;;;33.10;33.50;;;;;;5024636;28;20062;-81
2023/05/27 06:40:27;;;;;;;7.10;2.80;;;33.10;32.50;;;;;;5030245;28;20340;-82
2023/05/27 06:42:54;;;;;;;6.40;2.93;;;32.60;32.10;;;;;;5014771;28;20026;-82
2023/05/27 06:45:20;;;;;;;10.00;3.13;;;32.40;32.40;;;;;;4996960;28;20498;-81
2023/05/27 06:47:46;;;;;;;5.40;2.83;;;32.10;32.80;;;;;;5013808;28;20034;-81
2023/05/27 06:50:12;;;;;;;5.77;2.80;;;32.10;32.90;;;;;;5020661;28;20018;-82
2023/05/27 06:52:37;;;;;;;6.53;3.23;;;32.40;32.30;;;;;;5022135;28;20076;-82
2023/05/27 06:55:05;;;;;;;4.87;2.60;;;32.40;32.10;;;;;;5014531;28;20418;-81
2023/05/27 06:57:31;;;;;;;5.20;2.83;;;31.90;32.30;;;;;;5017226;28;20130;-82
2023/05/27 06:59:57;;;;;;;5.30;3.00;;;32.20;32.70;;;;;;5011770;28;20045;-83
2023/05/27 07:02:22;;;;;;;6.57;3.20;;;32.60;32.20;;;;;;5015358;28;20535;-81
2023/05/27 07:04:48;;;;;;;7.87;3.80;;;33.10;31.90;;;;;;4996759;28;20026;-81
2023/05/27 07:07:14;;;;;;;3.23;2.37;;;33.10;31.40;;;;;;5014487;28;20033;-81
2023/05/27 07:09:41;;;;;;;5.28;3.33;;;33.10;31.10;;;;;;5006079;28;20028;-82
2023/05/27 07:12:07;;;;;;;4.70;2.90;;;32.80;31.40;;;;;;5017850;28;20049;-83
2023/05/27 07:14:33;;;;;;;5.07;3.60;;;32.60;30.80;;;;;;5017024;28;20045;-83
2023/05/27 07:16:59;;;;;;;7.30;2.60;;;32.70;31.00;;;;;;4995295;28;20739;-82
2023/05/27 07:19:25;;;;;;;8.00;2.87;;;33.20;30.80;;;;;;5014732;28;20037;-83
2023/05/27 07:21:51;;;;;;;5.25;3.05;;;33.80;30.50;;;;;;5012479;28;20459;-82
2023/05/27 07:24:17;;;;;;;7.93;2.90;;;33.70;29.60;;;;;;5010821;28;20052;-83
2023/05/27 07:26:43;;;;;;;4.40;2.58;;;33.50;29.70;;;;;;5012568;28;20140;-84
2023/05/27 07:29:09;;;;;;;3.40;2.50;;;33.30;29.80;;;;;;5012589;28;20479;-82
2023/05/27 07:31:35;;;;;;;6.17;2.77;;;33.10;29.60;;;;;;5010474;28;20025;-81
2023/05/27 07:34:00;;;;;;;7.32;2.83;;;33.70;30.20;;;;;;5012734;28;20026;-85
2023/05/27 07:36:26;;;;;;;6.13;2.80;;;34.50;30.00;;;;;;5013923;28;20080;-83
2023/05/27 07:38:52;;;;;;;8.90;3.10;;;34.90;29.20;;;;;;5013825;28;20030;-83
2023/05/27 07:41:18;;;;;;;7.90;2.55;;;35.00;29.10;;;;;;5014867;28;20387;-83
2023/05/27 07:43:44;;;;;;;6.30;2.22;;;35.40;28.40;;;;;;5012603;28;20029;-84
2023/05/27 07:46:10;;;;;;;4.93;2.65;;;35.70;28.00;;;;;;5012985;28;20060;-81
2023/05/27 07:48:36;;;;;;;12.48;2.92;;;36.00;27.80;;;;;;5014856;28;20037;-84
2023/05/27 07:51:02;;;;;;;7.80;2.92;;;36.70;27.70;;;;;;5010891;28;20034;-84
2023/05/27 07:53:28;;;;;;;5.95;2.90;;;36.60;26.80;;;;;;5017854;28;20090;-86
2023/05/27 07:55:54;;;;;;;6.88;2.63;;;35.50;26.70;;;;;;5022635;28;20129;-83
2023/05/27 07:58:20;;;;;;;5.13;2.45;;;34.90;27.40;;;;;;5014577;28;20152;-80
2023/05/27 08:00:46;;;;;;;7.33;2.93;;;35.10;27.90;;;;;;5015080;28;20117;-81
2023/05/27 08:03:11;;;;;;;6.20;2.70;;;35.50;27.80;;;;;;5015120;28;20337;-83
2023/05/27 08:05:37;;;;;;;6.15;2.83;;;36.00;26.80;;;;;;5016850;28;20022;-83
2023/05/27 08:08:03;;;;;;;3.38;1.98;;;36.00;27.30;;;;;;5019642;28;20010;-92
2023/05/27 08:10:29;;;;;;;6.65;2.72;;;35.80;26.30;;;;;;5011526;28;20037;-89
2023/05/27 08:12:55;;;;;;;5.75;2.72;;;35.90;26.10;;;;;;5032261;28;20022;-89
2023/05/27 08:15:21;;;;;;;7.15;3.03;;;36.00;26.70;;;;;;5022549;28;20033;-88
2023/05/27 08:17:47;;;;;;;5.25;2.45;;;35.80;26.30;;;;;;5026720;28;20499;-86
2023/05/27 08:20:13;;;;;;;4.47;2.88;;;35.90;26.40;;;;;;5017635;28;20061;-87
2023/05/27 08:22:39;;;;;;;4.45;2.25;;;36.40;26.50;;;;;;5019988;28;20028;-83
2023/05/27 08:25:05;;;;;;;7.70;3.75;;;36.50;26.10;;;;;;5022559;28;20030;-83
2023/05/27 08:27:46;;;;;;;5.60;3.30;;;36.40;26.50;;;;;;5001175;28;20030;-85
2023/05/27 08:30:13;;;;;;;4.47;2.80;;;36.70;27.00;;;;;;5019480;28;20534;-88
2023/05/27 08:32:40;;;;;;;6.63;3.30;;;36.50;27.20;;;;;;5027256;28;20014;-82
2023/05/27 08:35:06;;;;;;;5.90;3.33;;;36.10;27.50;;;;;;5031758;28;20010;-82
2023/05/27 08:37:32;;;;;;;7.40;3.60;;;35.50;27.90;;;;;;5017094;28;20030;-82
2023/05/27 08:39:58;;;;;;;7.75;3.55;;;35.00;28.30;;;;;;5024697;28;20037;-82
2023/05/27 08:42:25;;;;;;;5.45;3.33;;;34.80;28.60;;;;;;5018375;28;20037;-84
2023/05/27 08:44:51;;;;;;;3.30;3.00;;;34.60;28.60;;;;;;5015479;28;20561;-84
2023/05/27 08:47:17;;;;;;;6.50;2.95;;;34.80;28.40;;;;;;5014239;28;20030;-84
2023/05/27 08:49:43;;;;;;;6.63;3.53;;;34.60;28.10;;;;;;5016035;28;20026;-84
2023/05/27 08:52:17;;;;;;;6.78;3.47;;;34.90;28.50;;;;;;5016218;28;20101;-83
2023/05/27 08:54:43;;;;;;;5.45;3.22;;;35.10;28.50;;;;;;5016783;28;20056;-91
2023/05/27 08:57:12;;;;;;;7.45;3.47;;;35.00;28.90;;;;;;5025232;28;20053;-90
2023/05/27 08:59:39;;;;;;;7.13;3.35;;;35.40;28.90;;;;;;5032768;28;20025;-92
2023/05/27 09:02:13;;;;;;;4.60;3.33;;;35.40;28.90;;;;;;5004461;28;20017;-90
2023/05/27 09:04:40;;;;;;;5.68;3.33;;;35.30;28.90;;;;;;5009775;28;20018;-89
2023/05/27 09:07:07;;;;;;;3.55;3.10;;;34.50;29.10;;;;;;5019816;28;20029;-90
2023/05/27 09:09:34;;;;;;;5.82;3.63;;;34.00;29.30;;;;;;5021018;28;20018;-89
2023/05/27 09:12:03;;;;;;;7.25;3.78;;;34.00;29.70;;;;;;5002995;28;20113;-88
2023/05/27 09:14:29;;;;;;;7.65;3.38;;;34.00;29.90;;;;;;5016380;28;20033;-90
2023/05/27 09:16:58;;;;;;;9.48;3.22;;;34.10;29.70;;;;;;5015786;28;20026;-91
2023/05/27 09:19:24;;;;;;;5.03;3.00;;;34.20;29.70;;;;;;5016531;28;20040;-86
2023/05/27 09:21:53;;;;;;;4.50;3.30;;;33.60;29.90;;;;;;4998183;28;20038;-85
2023/05/27 09:24:19;;;;;;;4.50;3.05;;;33.90;30.00;;;;;;5021750;28;20029;-86
2023/05/27 09:26:45;;;;;;;7.13;3.63;;;33.60;29.60;;;;;;5022116;28;20030;-87
2023/05/27 09:29:11;;;;;;;6.47;3.50;;;33.40;30.00;;;;;;5032076;28;20026;-86
2023/05/27 09:31:41;;;;;;;6.05;3.42;;;33.80;29.70;;;;;;5034201;28;20021;-89
2023/05/27 09:34:12;;;;;;;8.65;3.75;;;33.70;29.70;;;;;;5017593;28;20021;-85
2023/05/27 09:36:46;;;;;;;7.07;3.22;;;34.10;30.00;;;;;;5002256;28;20054;-86
2023/05/27 09:39:18;;;;;;;7.03;3.35;;;34.80;29.40;;;;;;5016747;28;20033;-85
2023/05/27 09:41:49;;;;;;;5.60;3.20;;;35.40;29.50;;;;;;5022691;28;20092;-91
2023/05/27 09:44:16;;;;;;;12.32;4.10;;;35.30;29.10;;;;;;5027623;28;20030;-92
2023/05/27 09:46:47;;;;;;;7.65;3.60;;;34.90;29.70;;;;;;5018832;28;20086;-90
2023/05/27 09:49:17;;;;;;;7.07;3.30;;;34.50;29.30;;;;;;5019423;28;20037;-89
2023/05/27 09:51:43;;;;;;;5.63;3.63;;;34.50;29.30;;;;;;5004254;28;20423;-88
2023/05/27 09:54:12;;;;;;;8.63;3.55;;;33.90;29.40;;;;;;4995428;28;20050;-81
2023/05/27 09:56:38;;;;;;;6.18;3.83;;;33.40;29.70;;;;;;5011860;28;20029;-80
2023/05/27 09:59:06;;;;;;;6.05;3.42;;;33.00;30.10;;;;;;5014056;28;20060;-82
2023/05/27 10:01:32;;;;;;;6.90;3.47;;;33.20;30.00;;;;;;5013232;28;20018;-82
2023/05/27 10:03:58;;;;;;;4.22;2.70;;;32.80;30.10;;;;;;5012899;28;20037;-80
2023/05/27 10:06:25;;;;;;;7.10;3.67;;;32.30;29.40;;;;;;5012852;28;20018;-82
2023/05/27 10:08:58;;;;;;;6.40;3.08;;;31.90;30.40;;;;;;5012547;28;20030;-78
2023/05/27 10:11:26;;;;;;;5.70;3.22;;;31.70;30.60;;;;;;5023856;28;20029;-79
2023/05/27 10:13:52;;;;;;;4.90;3.50;;;31.40;30.90;;;;;;5016341;28;20029;-80
2023/05/27 10:16:23;;;;;;;8.88;3.85;;;31.40;31.30;;;;;;5015648;28;20075;-81
2023/05/27 10:18:53;;;;;;;5.85;3.42;;;31.80;31.10;;;;;;5017096;28;20093;-80
2023/05/27 10:21:24;;;;;;;4.45;3.05;;;31.90;31.00;;;;;;5023675;28;20025;-80
2023/05/27 10:23:57;;;;;;;5.20;3.58;;;32.00;30.90;;;;;;5036842;28;20026;-80
2023/05/27 10:26:41;;;;;;;8.65;3.67;;;31.50;31.50;;;;;;5028385;28;20022;-79
2023/05/27 10:29:09;;;;;;;7.85;4.55;;;30.40;31.90;;;;;;5018007;28;20410;-80
2023/05/27 10:31:38;;;;;;;6.35;3.75;;;29.30;33.20;;;;;;5017963;28;20036;-81
2023/05/27 10:34:08;;;;;;;7.80;3.83;;;28.30;34.20;;;;;;5016768;28;20103;-80
2023/05/27 10:36:36;;;;;;;9.05;4.53;;;27.20;34.70;;;;;;5034511;28;20029;-80
2023/05/27 10:39:05;;;;;;;6.15;3.90;;;26.20;36.00;;;;;;5015668;28;20022;-79
2023/05/27 10:41:49;;;;;;;5.72;4.13;;;25.50;36.80;;;;;;5012123;28;20022;-80
2023/05/27 10:44:28;;;;;;;8.00;3.92;;;25.00;37.90;;;;;;5013763;28;20024;-80
2023/05/27 10:47:01;;;;;;;7.40;3.72;;;24.50;39.00;;;;;;5013664;28;20022;-79
2023/05/27 10:49:32;;;;;;;5.40;4.18;;;24.20;39.90;;;;;;5013719;28;20022;-79
2023/05/27 10:52:04;;;;;;;7.97;3.42;;;23.90;40.80;;;;;;5004812;28;20438;-79
2023/05/27 10:54:33;;;;;;;6.05;3.67;;;23.80;41.10;;;;;;5012279;28;20412;-79
2023/05/27 10:56:59;;;;;;;5.78;3.95;;;23.80;41.00;;;;;;5012591;28;20124;-81
2023/05/27 10:59:38;;;;;;;9.43;4.13;;;23.40;41.20;;;;;;5012231;28;20460;-81
2023/05/27 11:02:06;;;;;;;6.10;3.83;;;23.20;41.80;;;;;;5005767;28;20054;-84
2023/05/27 11:04:38;;;;;;;4.32;3.55;;;23.00;42.10;;;;;;5013937;28;20030;-81
2023/05/27 11:07:04;;;;;;;6.43;3.60;;;23.00;42.10;;;;;;5012612;28;20026;-82
2023/05/27 11:09:42;;;;;;;6.07;4.15;;;23.00;42.20;;;;;;5012866;28;20033;-80
2023/05/27 11:12:08;;;;;;;13.18;4.32;;;23.00;41.70;;;;;;5016844;28;20171;-81
2023/05/27 11:14:33;;;;;;;9.23;4.28;;;22.90;41.90;;;;;;5020212;28;20056;-82
2023/05/27 11:16:59;;;;;;;9.43;4.10;;;22.80;42.50;;;;;;5016730;28;20038;-81
2023/05/27 11:19:25;;;;;;;5.78;4.10;;;;;;;;;;5011758;28;20026;-84
2023/05/27 11:21:51;;;;;;;9.80;3.88;;;;;;;;;;5013258;28;20110;-81
2023/05/27 11:24:18;;;;;;;4.75;3.78;;;;;;;;;;5013037;28;20025;-83
2023/05/27 11:26:46;;;;;;;5.05;3.60;;;;;;;;;;5012653;28;20664;-81
2023/05/27 11:29:13;;;;;;;10.02;3.75;;;;;;;;;;4991896;28;20026;-81
2023/05/27 11:31:42;;;;;;;5.00;3.08;;;;;;;;;;5011995;28;20030;-82
2023/05/27 11:34:20;;;;;;;5.65;3.42;;;;;;;;;;5016452;28;20014;-82
2023/05/27 11:36:49;;;;;;;5.78;3.53;;;;;;;;;;5017213;28;20065;-80
2023/05/27 11:39:16;;;;;;;5.47;4.05;;;;;;;;;;5016717;28;20491;-82
2023/05/27 11:41:49;;;;;;;8.10;3.83;;;;;;;;;;5025223;28;20344;-82
2023/05/27 11:44:15;;;;;;;8.20;4.20;;;;;;;;;;5017836;28;20087;-81
2023/05/27 11:46:43;;;;;;;11.30;3.70;;;;;;;;;;5025945;28;20024;-81
2023/05/27 11:49:13;;;;;;;5.60;3.15;;;;;;;;;;5023571;28;20079;-80
2023/05/27 11:51:43;;;;;;;6.18;3.88;;;;;;;;;;5025482;28;20475;-78
2023/05/27 11:54:31;;;;;;;8.30;3.97;;;;;;;;;;5021953;28;20403;-79
2023/05/27 11:57:02;;;;;;;5.88;3.63;;;;;;;;;;5015844;28;20045;-80
2023/05/27 11:59:28;;;;;;;8.65;3.70;;;;;;;;;;5015606;28;20033;-81
2023/05/27 12:01:54;;;;;;;6.38;3.72;;;;;;;;;;5015669;28;20471;-78
2023/05/27 12:04:20;;;;;;;6.28;2.90;;;;;;;;;;5017054;28;20518;-81
2023/05/27 12:06:47;;;;;;;6.05;3.08;;;;;;;;;;5016377;28;20121;-80
2023/05/27 12:09:14;;;;;;;8.75;3.90;;;;;;;;;;5015879;28;20030;-81
2023/05/27 12:11:41;;;;;;;10.60;3.63;;;;;;;;;;5015961;28;20061;-80
2023/05/27 12:14:07;;;;;;;10.30;3.35;;;;;;;;;;5014708;28;20483;-81
2023/05/27 12:16:33;;;;;;;11.93;4.10;;;;;;;;;;5015355;28;20026;-79
2023/05/27 12:19:00;;;;;;;7.85;3.30;;;;;;;;;;5017379;28;20337;-80
2023/05/27 12:21:27;;;;;;;4.97;3.47;;;;;;;;;;5023039;28;20026;-81
2023/05/27 12:23:53;;;;;;;7.38;4.22;;;;;;;;;;5031380;28;20014;-82
2023/05/27 12:26:20;;;;;;;9.48;4.10;;;;;;;;;;5016798;28;20076;-81
2023/05/27 12:28:46;;;;;;;11.05;4.15;;;;;;;;;;5015555;28;20025;-80
2023/05/27 12:31:12;;;;;;;6.20;3.17;;;;;;;;;;5015398;28;20063;-82
2023/05/27 12:33:38;;;;;;;8.60;4.05;;;;;;;;;;5015088;28;20025;-78
2023/05/27 12:36:05;;;;;;;5.28;3.22;;;;;;;;;;5035962;28;20113;-80
2023/05/27 12:38:31;;;;;;;4.67;3.17;;;;;;;;;;5036498;28;20061;-79
2023/05/27 12:40:57;;;;;;;7.22;3.42;;;;;;;;;;5025137;28;20628;-80
2023/05/27 12:43:24;;;;;;;3.40;2.85;;;;;;;;;;5015847;28;20368;-79
2023/05/27 12:45:50;;;;;;;6.35;2.70;;;;;;;;;;5015076;28;20030;-80
2023/05/27 12:48:20;;;;;;;6.57;4.30;;;;;;;;;;5014809;28;20018;-79
2023/05/27 12:50:46;;;;;;;7.50;4.50;;;;;;;;;;5013825;28;20018;-80
2023/05/27 12:53:12;;;;;;;6.90;4.07;;;;;;;;;;5014237;28;20103;-79
2023/05/27 12:55:39;;;;;;;8.18;3.92;;;;;;;;;;5014421;28;20127;-80
2023/05/27 12:58:05;;;;;;;7.35;2.80;;;;;;;;;;5018195;28;20499;-82